sensor_id;sensor_type;location;lat;lon;timestamp;noise_LAeq;noise_LA_min;noise_LA_max;noise_LA01;noise_LA95
43787;Laerm;29409;49.306;8.500;2023-07-13T00:00:03;42.47;40.80;43.77;;
43787;Laerm;29409;49.306;8.500;2023-07-13T00:01:09;42.48;41.14;47.74;;
43787;Laerm;29409;49.306;8.500;2023-07-13T00:02:09;42.61;40.71;43.77;;
43787;Laerm;29409;49.306;8.500;2023-07-13T00:03:09;41.71;40.03;43.44;;
43787;Laerm;29409;49.306;8.500;2023-07-13T00:04:13;42.43;40.43;45.66;;
43787;Laerm;29409;49.306;8.500;2023-07-13T00:05:13;46.04;39.58;60.46;;
43787;Laerm;29409;49.306;8.500;2023-07-13T00:06:14;42.25;39.70;51.47;;
43787;Laerm;29409;49.306;8.500;2023-07-13T00:07:14;41.35;39.34;42.82;;
43787;Laerm;29409;49.306;8.500;2023-07-13T00:08:14;41.21;39.21;42.59;;
43787;Laerm;29409;49.306;8.500;2023-07-13T00:09:15;41.35;39.34;44.35;;
43787;Laerm;29409;49.306;8.500;2023-07-13T00:10:16;41.15;39.21;42.59;;
43787;Laerm;29409;49.306;8.500;2023-07-13T00:11:17;41.06;36.69;42.88;;
43787;Laerm;29409;49.306;8.500;2023-07-13T00:12:24;40.13;37.12;43.09;;
43787;Laerm;29409;49.306;8.500;2023-07-13T00:13:25;40.06;37.32;43.14;;
43787;Laerm;29409;49.306;8.500;2023-07-13T00:14:26;39.81;36.45;42.82;;
43787;Laerm;29409;49.306;8.500;2023-07-13T00:15:27;39.44;36.20;42.22;;
43787;Laerm;29409;49.306;8.500;2023-07-13T00:16:30;40.00;35.66;42.09;;
43787;Laerm;29409;49.306;8.500;2023-07-13T00:17:30;39.86;37.12;43.14;;
43787;Laerm;29409;49.306;8.500;2023-07-13T00:18:30;39.55;35.94;43.68;;
43787;Laerm;29409;49.306;8.500;2023-07-13T00:19:31;40.01;36.10;42.47;;
43787;Laerm;29409;49.306;8.500;2023-07-13T00:20:31;39.96;36.45;42.03;;
43787;Laerm;29409;49.306;8.500;2023-07-13T00:21:33;40.89;37.32;44.79;;
43787;Laerm;29409;49.306;8.500;2023-07-13T00:22:33;39.99;35.94;42.53;;
43787;Laerm;29409;49.306;8.500;2023-07-13T00:23:34;39.53;35.04;41.75;;
43787;Laerm;29409;49.306;8.500;2023-07-13T00:24:35;40.21;36.20;42.53;;
43787;Laerm;29409;49.306;8.500;2023-07-13T00:25:39;40.08;36.20;42.16;;
43787;Laerm;29409;49.306;8.500;2023-07-13T00:26:40;40.24;36.91;42.59;;
43787;Laerm;29409;49.306;8.500;2023-07-13T00:27:41;40.22;36.69;42.71;;
43787;Laerm;29409;49.306;8.500;2023-07-13T00:28:42;39.74;35.36;42.03;;
43787;Laerm;29409;49.306;8.500;2023-07-13T00:29:42;39.84;36.91;41.82;;
43787;Laerm;29409;49.306;8.500;2023-07-13T00:30:43;39.87;37.12;42.16;;
43787;Laerm;29409;49.306;8.500;2023-07-13T00:31:44;40.04;35.59;42.53;;
43787;Laerm;29409;49.306;8.500;2023-07-13T00:32:44;42.53;36.91;52.62;;
43787;Laerm;29409;49.306;8.500;2023-07-13T00:33:45;39.73;36.20;42.16;;
43787;Laerm;29409;49.306;8.500;2023-07-13T00:34:45;39.67;36.91;41.96;;
43787;Laerm;29409;49.306;8.500;2023-07-13T00:35:45;39.99;36.69;42.09;;
43787;Laerm;29409;49.306;8.500;2023-07-13T00:36:46;40.01;35.66;42.29;;
43787;Laerm;29409;49.306;8.500;2023-07-13T00:37:46;40.05;36.45;42.35;;
43787;Laerm;29409;49.306;8.500;2023-07-13T00:38:47;39.86;35.66;42.93;;
43787;Laerm;29409;49.306;8.500;2023-07-13T00:39:47;39.95;36.69;42.41;;
43787;Laerm;29409;49.306;8.500;2023-07-13T00:40:48;39.93;36.45;42.82;;
43787;Laerm;29409;49.306;8.500;2023-07-13T00:41:49;40.02;36.56;42.47;;
43787;Laerm;29409;49.306;8.500;2023-07-13T00:42:51;40.27;37.70;42.76;;
43787;Laerm;29409;49.306;8.500;2023-07-13T00:43:51;40.34;36.20;42.53;;
43787;Laerm;29409;49.306;8.500;2023-07-13T00:45:04;40.73;35.66;43.81;;
43787;Laerm;29409;49.306;8.500;2023-07-13T00:46:15;40.43;36.20;57.17;;
43787;Laerm;29409;49.306;8.500;2023-07-13T00:47:16;40.25;33.90;42.41;;
43787;Laerm;29409;49.306;8.500;2023-07-13T00:48:21;40.28;36.69;44.23;;
43787;Laerm;29409;49.306;8.500;2023-07-13T00:49:22;40.83;36.91;42.88;;
43787;Laerm;29409;49.306;8.500;2023-07-13T00:50:23;40.30;36.20;42.76;;
43787;Laerm;29409;49.306;8.500;2023-07-13T00:51:25;40.85;37.88;43.14;;
43787;Laerm;29409;49.306;8.500;2023-07-13T00:52:27;40.47;37.32;42.71;;
43787;Laerm;29409;49.306;8.500;2023-07-13T00:53:28;40.49;36.69;44.47;;
43787;Laerm;29409;49.306;8.500;2023-07-13T00:54:34;42.57;37.88;44.97;;
43787;Laerm;29409;49.306;8.500;2023-07-13T00:55:36;43.27;39.46;44.65;;
43787;Laerm;29409;49.306;8.500;2023-07-13T00:56:36;46.13;40.54;74.98;;
43787;Laerm;29409;49.306;8.500;2023-07-13T00:57:37;42.52;40.43;44.03;;
43787;Laerm;29409;49.306;8.500;2023-07-13T00:58:38;42.63;41.22;43.77;;
43787;Laerm;29409;49.306;8.500;2023-07-13T00:59:38;42.73;41.53;43.94;;
43787;Laerm;29409;49.306;8.500;2023-07-13T01:00:39;42.81;41.22;54.80;;
43787;Laerm;29409;49.306;8.500;2023-07-13T01:01:40;44.15;41.22;64.01;;
43787;Laerm;29409;49.306;8.500;2023-07-13T01:02:41;42.70;41.38;48.26;;
43787;Laerm;29409;49.306;8.500;2023-07-13T01:03:42;42.78;41.30;50.58;;
43787;Laerm;29409;49.306;8.500;2023-07-13T01:04:43;42.75;41.30;43.86;;
43787;Laerm;29409;49.306;8.500;2023-07-13T01:05:43;43.42;41.38;49.92;;
43787;Laerm;29409;49.306;8.500;2023-07-13T01:06:46;41.95;39.81;43.72;;
43787;Laerm;29409;49.306;8.500;2023-07-13T01:07:48;41.62;38.95;43.54;;
43787;Laerm;29409;49.306;8.500;2023-07-13T01:08:49;41.98;39.08;43.77;;
43787;Laerm;29409;49.306;8.500;2023-07-13T01:09:50;42.93;40.13;47.84;;
43787;Laerm;29409;49.306;8.500;2023-07-13T01:10:51;41.99;38.52;44.97;;
43787;Laerm;29409;49.306;8.500;2023-07-13T01:11:51;41.55;38.52;43.77;;
43787;Laerm;29409;49.306;8.500;2023-07-13T01:12:52;42.64;39.21;49.51;;
43787;Laerm;29409;49.306;8.500;2023-07-13T01:13:53;40.86;36.45;45.39;;
43787;Laerm;29409;49.306;8.500;2023-07-13T01:14:57;39.83;34.69;42.22;;
43787;Laerm;29409;49.306;8.500;2023-07-13T01:15:58;40.28;36.45;42.59;;
43787;Laerm;29409;49.306;8.500;2023-07-13T01:17:02;40.21;36.69;42.59;;
43787;Laerm;29409;49.306;8.500;2023-07-13T01:18:04;40.05;36.69;42.65;;
43787;Laerm;29409;49.306;8.500;2023-07-13T01:19:07;40.19;35.94;43.29;;
43787;Laerm;29409;49.306;8.500;2023-07-13T01:20:11;42.07;38.67;44.47;;
43787;Laerm;29409;49.306;8.500;2023-07-13T01:21:11;41.47;37.88;45.01;;
43787;Laerm;29409;49.306;8.500;2023-07-13T01:22:13;41.57;37.70;44.03;;
43787;Laerm;29409;49.306;8.500;2023-07-13T01:23:13;41.55;37.88;44.15;;
43787;Laerm;29409;49.306;8.500;2023-07-13T01:24:13;41.35;37.12;43.42;;
43787;Laerm;29409;49.306;8.500;2023-07-13T01:25:14;41.05;36.91;44.54;;
43787;Laerm;29409;49.306;8.500;2023-07-13T01:26:14;40.46;37.12;43.19;;
43787;Laerm;29409;49.306;8.500;2023-07-13T01:27:15;39.46;35.36;42.03;;
43787;Laerm;29409;49.306;8.500;2023-07-13T01:28:16;39.91;35.36;42.59;;
43787;Laerm;29409;49.306;8.500;2023-07-13T01:29:16;41.04;37.17;43.54;;
43787;Laerm;29409;49.306;8.500;2023-07-13T01:30:17;40.44;36.20;43.34;;
43787;Laerm;29409;49.306;8.500;2023-07-13T01:31:17;40.26;36.91;43.29;;
43787;Laerm;29409;49.306;8.500;2023-07-13T01:32:20;40.55;36.20;43.04;;
43787;Laerm;29409;49.306;8.500;2023-07-13T01:33:21;40.27;36.20;43.29;;
43787;Laerm;29409;49.306;8.500;2023-07-13T01:34:22;40.53;36.56;43.14;;
43787;Laerm;29409;49.306;8.500;2023-07-13T01:35:22;52.70;39.81;62.20;;
43787;Laerm;29409;49.306;8.500;2023-07-13T01:36:23;46.49;38.52;60.01;;
43787;Laerm;29409;49.306;8.500;2023-07-13T01:37:24;41.19;38.21;43.39;;
43787;Laerm;29409;49.306;8.500;2023-07-13T01:38:25;40.46;37.32;42.59;;
43787;Laerm;29409;49.306;8.500;2023-07-13T01:39:25;40.09;37.12;42.93;;
43787;Laerm;29409;49.306;8.500;2023-07-13T01:40:26;39.82;36.56;42.35;;
43787;Laerm;29409;49.306;8.500;2023-07-13T01:41:26;39.62;34.31;42.53;;
43787;Laerm;29409;49.306;8.500;2023-07-13T01:42:26;39.41;34.31;43.49;;
43787;Laerm;29409;49.306;8.500;2023-07-13T01:43:27;39.33;35.36;41.75;;
43787;Laerm;29409;49.306;8.500;2023-07-13T01:44:28;39.58;36.45;41.88;;
43787;Laerm;29409;49.306;8.500;2023-07-13T01:45:28;39.63;36.20;42.29;;
43787;Laerm;29409;49.306;8.500;2023-07-13T01:46:28;39.32;35.66;41.89;;
43787;Laerm;29409;49.306;8.500;2023-07-13T01:47:29;39.84;36.20;44.27;;
43787;Laerm;29409;49.306;8.500;2023-07-13T01:48:30;39.48;35.66;42.76;;
43787;Laerm;29409;49.306;8.500;2023-07-13T01:49:31;40.87;36.69;47.52;;
43787;Laerm;29409;49.306;8.500;2023-07-13T01:50:32;39.78;35.66;44.23;;
43787;Laerm;29409;49.306;8.500;2023-07-13T01:51:33;40.07;35.94;42.29;;
43787;Laerm;29409;49.306;8.500;2023-07-13T01:52:33;40.12;36.91;42.35;;
43787;Laerm;29409;49.306;8.500;2023-07-13T01:53:33;40.61;35.94;42.82;;
43787;Laerm;29409;49.306;8.500;2023-07-13T01:54:33;41.16;38.21;43.04;;
43787;Laerm;29409;49.306;8.500;2023-07-13T01:55:34;40.75;37.32;43.34;;
43787;Laerm;29409;49.306;8.500;2023-07-13T01:56:35;40.11;37.32;42.59;;
43787;Laerm;29409;49.306;8.500;2023-07-13T01:57:35;39.88;37.12;41.96;;
43787;Laerm;29409;49.306;8.500;2023-07-13T01:58:35;39.56;36.20;41.96;;
43787;Laerm;29409;49.306;8.500;2023-07-13T01:59:36;39.74;36.20;41.96;;
43787;Laerm;29409;49.306;8.500;2023-07-13T02:00:36;39.97;36.69;42.09;;
43787;Laerm;29409;49.306;8.500;2023-07-13T02:01:36;40.19;36.20;42.29;;
43787;Laerm;29409;49.306;8.500;2023-07-13T02:02:36;41.42;37.88;45.48;;
43787;Laerm;29409;49.306;8.500;2023-07-13T02:03:37;40.49;37.70;42.41;;
43787;Laerm;29409;49.306;8.500;2023-07-13T02:04:37;40.10;36.69;42.03;;
43787;Laerm;29409;49.306;8.500;2023-07-13T02:05:37;39.96;37.32;42.03;;
43787;Laerm;29409;49.306;8.500;2023-07-13T02:06:37;44.52;37.12;74.60;;
43787;Laerm;29409;49.306;8.500;2023-07-13T02:07:38;41.24;38.21;43.44;;
43787;Laerm;29409;49.306;8.500;2023-07-13T02:08:39;42.74;40.71;43.99;;
43787;Laerm;29409;49.306;8.500;2023-07-13T02:09:40;42.78;41.14;44.11;;
43787;Laerm;29409;49.306;8.500;2023-07-13T02:10:40;43.29;41.22;49.16;;
43787;Laerm;29409;49.306;8.500;2023-07-13T02:11:40;42.67;40.89;43.86;;
43787;Laerm;29409;49.306;8.500;2023-07-13T02:12:41;43.22;41.30;47.18;;
43787;Laerm;29409;49.306;8.500;2023-07-13T02:13:41;43.01;40.62;44.15;;
43787;Laerm;29409;49.306;8.500;2023-07-13T02:14:42;43.43;41.33;48.23;;
43787;Laerm;29409;49.306;8.500;2023-07-13T02:15:42;43.20;40.98;45.30;;
43787;Laerm;29409;49.306;8.500;2023-07-13T02:16:43;42.61;40.62;44.19;;
43787;Laerm;29409;49.306;8.500;2023-07-13T02:17:43;42.18;40.33;43.72;;
43787;Laerm;29409;49.306;8.500;2023-07-13T02:18:43;42.29;40.23;43.49;;
43787;Laerm;29409;49.306;8.500;2023-07-13T02:19:43;42.19;40.43;43.68;;
43787;Laerm;29409;49.306;8.500;2023-07-13T02:20:44;42.18;40.13;43.58;;
43787;Laerm;29409;49.306;8.500;2023-07-13T02:21:44;42.22;40.13;43.72;;
43787;Laerm;29409;49.306;8.500;2023-07-13T02:22:44;41.12;37.12;43.29;;
43787;Laerm;29409;49.306;8.500;2023-07-13T02:23:45;39.90;36.91;42.71;;
43787;Laerm;29409;49.306;8.500;2023-07-13T02:24:45;40.11;37.32;42.65;;
43787;Laerm;29409;49.306;8.500;2023-07-13T02:25:45;40.51;37.32;44.07;;
43787;Laerm;29409;49.306;8.500;2023-07-13T02:26:45;41.20;38.21;46.95;;
43787;Laerm;29409;49.306;8.500;2023-07-13T02:27:46;40.52;36.45;45.42;;
43787;Laerm;29409;49.306;8.500;2023-07-13T02:28:46;39.90;37.32;42.71;;
43787;Laerm;29409;49.306;8.500;2023-07-13T02:29:46;40.50;37.52;43.72;;
43787;Laerm;29409;49.306;8.500;2023-07-13T02:30:47;41.10;37.70;43.34;;
43787;Laerm;29409;49.306;8.500;2023-07-13T02:31:47;40.87;38.21;43.19;;
43787;Laerm;29409;49.306;8.500;2023-07-13T02:32:48;41.49;36.69;47.93;;
43787;Laerm;29409;49.306;8.500;2023-07-13T02:33:48;40.89;37.32;44.90;;
43787;Laerm;29409;49.306;8.500;2023-07-13T02:34:48;41.09;38.87;42.76;;
43787;Laerm;29409;49.306;8.500;2023-07-13T02:35:48;41.62;38.05;43.39;;
43787;Laerm;29409;49.306;8.500;2023-07-13T02:36:49;41.22;38.05;43.94;;
43787;Laerm;29409;49.306;8.500;2023-07-13T02:37:49;40.63;36.20;42.59;;
43787;Laerm;29409;49.306;8.500;2023-07-13T02:38:50;40.75;38.21;42.88;;
43787;Laerm;29409;49.306;8.500;2023-07-13T02:39:50;40.84;37.52;43.44;;
43787;Laerm;29409;49.306;8.500;2023-07-13T02:40:51;40.57;37.88;43.93;;
43787;Laerm;29409;49.306;8.500;2023-07-13T02:41:51;40.53;37.88;42.53;;
43787;Laerm;29409;49.306;8.500;2023-07-13T02:42:51;40.79;36.10;42.93;;
43787;Laerm;29409;49.306;8.500;2023-07-13T02:43:51;40.98;38.37;43.68;;
43787;Laerm;29409;49.306;8.500;2023-07-13T02:44:52;40.74;37.12;44.27;;
43787;Laerm;29409;49.306;8.500;2023-07-13T02:45:52;43.21;38.81;46.07;;
43787;Laerm;29409;49.306;8.500;2023-07-13T02:46:53;45.34;43.64;48.20;;
43787;Laerm;29409;49.306;8.500;2023-07-13T02:47:53;44.46;42.76;46.62;;
43787;Laerm;29409;49.306;8.500;2023-07-13T02:48:53;44.71;43.09;46.95;;
43787;Laerm;29409;49.306;8.500;2023-07-13T02:49:54;44.94;43.63;47.79;;
43787;Laerm;29409;49.306;8.500;2023-07-13T02:50:54;44.83;43.49;47.70;;
43787;Laerm;29409;49.306;8.500;2023-07-13T02:51:54;44.74;43.09;45.72;;
43787;Laerm;29409;49.306;8.500;2023-07-13T02:52:55;43.69;41.68;49.95;;
43787;Laerm;29409;49.306;8.500;2023-07-13T02:53:55;43.26;41.75;44.51;;
43787;Laerm;29409;49.306;8.500;2023-07-13T02:54:55;43.38;41.82;44.73;;
43787;Laerm;29409;49.306;8.500;2023-07-13T02:55:55;43.23;41.46;44.62;;
43787;Laerm;29409;49.306;8.500;2023-07-13T02:56:56;43.80;41.68;50.73;;
43787;Laerm;29409;49.306;8.500;2023-07-13T02:57:56;43.30;40.43;45.48;;
43787;Laerm;29409;49.306;8.500;2023-07-13T02:58:57;44.08;41.53;52.85;;
43787;Laerm;29409;49.306;8.500;2023-07-13T02:59:58;47.75;40.98;58.89;;
43787;Laerm;29409;49.306;8.500;2023-07-13T03:00:58;43.81;41.14;52.69;;
43787;Laerm;29409;49.306;8.500;2023-07-13T03:02:00;43.92;41.38;66.64;;
43787;Laerm;29409;49.306;8.500;2023-07-13T03:03:01;42.84;40.89;48.92;;
43787;Laerm;29409;49.306;8.500;2023-07-13T03:04:01;42.74;41.06;44.83;;
43787;Laerm;29409;49.306;8.500;2023-07-13T03:05:01;42.77;40.98;47.16;;
43787;Laerm;29409;49.306;8.500;2023-07-13T03:06:02;42.57;40.79;44.35;;
43787;Laerm;29409;49.306;8.500;2023-07-13T03:07:03;42.70;40.98;43.94;;
43787;Laerm;29409;49.306;8.500;2023-07-13T03:08:04;43.24;40.98;48.99;;
43787;Laerm;29409;49.306;8.500;2023-07-13T03:09:04;43.68;41.33;50.59;;
43787;Laerm;29409;49.306;8.500;2023-07-13T03:10:05;43.50;41.48;50.59;;
43787;Laerm;29409;49.306;8.500;2023-07-13T03:11:07;43.71;40.62;50.48;;
43787;Laerm;29409;49.306;8.500;2023-07-13T03:12:08;43.55;40.03;51.37;;
43787;Laerm;29409;49.306;8.500;2023-07-13T03:13:08;42.88;39.58;50.73;;
43787;Laerm;29409;49.306;8.500;2023-07-13T03:14:08;44.02;40.71;51.43;;
43787;Laerm;29409;49.306;8.500;2023-07-13T03:15:09;43.18;39.46;51.37;;
43787;Laerm;29409;49.306;8.500;2023-07-13T03:16:09;43.07;39.46;48.60;;
43787;Laerm;29409;49.306;8.500;2023-07-13T03:17:10;43.91;39.70;52.51;;
43787;Laerm;29409;49.306;8.500;2023-07-13T03:18:10;43.24;39.70;53.98;;
43787;Laerm;29409;49.306;8.500;2023-07-13T03:19:11;42.38;38.95;53.20;;
43787;Laerm;29409;49.306;8.500;2023-07-13T03:20:11;46.43;40.33;55.38;;
43787;Laerm;29409;49.306;8.500;2023-07-13T03:21:12;47.05;41.38;56.54;;
43787;Laerm;29409;49.306;8.500;2023-07-13T03:22:12;43.99;40.71;52.06;;
43787;Laerm;29409;49.306;8.500;2023-07-13T03:23:12;43.79;39.68;52.59;;
43787;Laerm;29409;49.306;8.500;2023-07-13T03:24:13;42.86;39.81;52.74;;
43787;Laerm;29409;49.306;8.500;2023-07-13T03:25:13;44.64;40.53;52.88;;
43787;Laerm;29409;49.306;8.500;2023-07-13T03:26:15;43.69;41.06;53.56;;
43787;Laerm;29409;49.306;8.500;2023-07-13T03:27:17;43.83;38.67;54.29;;
43787;Laerm;29409;49.306;8.500;2023-07-13T03:28:20;43.86;39.92;53.37;;
43787;Laerm;29409;49.306;8.500;2023-07-13T03:29:20;43.96;40.13;53.26;;
43787;Laerm;29409;49.306;8.500;2023-07-13T03:30:21;45.31;40.80;54.92;;
43787;Laerm;29409;49.306;8.500;2023-07-13T03:31:23;45.08;41.89;52.33;;
43787;Laerm;29409;49.306;8.500;2023-07-13T03:32:26;45.19;40.71;54.09;;
43787;Laerm;29409;49.306;8.500;2023-07-13T03:33:26;43.83;40.03;66.20;;
43787;Laerm;29409;49.306;8.500;2023-07-13T03:34:26;44.97;39.08;53.61;;
43787;Laerm;29409;49.306;8.500;2023-07-13T03:35:27;45.25;40.23;54.96;;
43787;Laerm;29409;49.306;8.500;2023-07-13T03:36:27;43.82;40.33;53.05;;
43787;Laerm;29409;49.306;8.500;2023-07-13T03:37:28;44.15;40.03;54.40;;
43787;Laerm;29409;49.306;8.500;2023-07-13T03:38:28;44.83;40.33;56.45;;
43787;Laerm;29409;49.306;8.500;2023-07-13T03:39:28;49.23;41.22;59.28;;
43787;Laerm;29409;49.306;8.500;2023-07-13T03:40:29;46.28;41.61;57.27;;
43787;Laerm;29409;49.306;8.500;2023-07-13T03:41:29;45.42;40.03;57.30;;
43787;Laerm;29409;49.306;8.500;2023-07-13T03:42:30;45.92;39.58;57.30;;
43787;Laerm;29409;49.306;8.500;2023-07-13T03:43:30;46.07;39.08;55.69;;
43787;Laerm;29409;49.306;8.500;2023-07-13T03:44:30;46.31;40.43;57.51;;
43787;Laerm;29409;49.306;8.500;2023-07-13T03:45:31;44.35;40.13;53.54;;
43787;Laerm;29409;49.306;8.500;2023-07-13T03:46:31;50.13;40.71;63.55;;
43787;Laerm;29409;49.306;8.500;2023-07-13T03:47:31;51.06;40.80;67.18;;
43787;Laerm;29409;49.306;8.500;2023-07-13T03:48:32;46.28;40.53;59.56;;
43787;Laerm;29409;49.306;8.500;2023-07-13T03:49:32;43.58;39.81;51.17;;
43787;Laerm;29409;49.306;8.500;2023-07-13T03:50:32;44.81;40.33;54.65;;
43787;Laerm;29409;49.306;8.500;2023-07-13T03:51:33;42.74;39.58;53.90;;
43787;Laerm;29409;49.306;8.500;2023-07-13T03:52:33;41.89;39.08;45.91;;
43787;Laerm;29409;49.306;8.500;2023-07-13T03:53:34;42.90;40.43;47.38;;
43787;Laerm;29409;49.306;8.500;2023-07-13T03:54:34;45.43;41.68;54.51;;
43787;Laerm;29409;49.306;8.500;2023-07-13T03:55:34;46.81;41.46;54.97;;
43787;Laerm;29409;49.306;8.500;2023-07-13T03:56:35;45.01;41.61;53.40;;
43787;Laerm;29409;49.306;8.500;2023-07-13T03:57:35;43.27;40.80;50.21;;
43787;Laerm;29409;49.306;8.500;2023-07-13T03:58:36;45.43;40.43;53.02;;
43787;Laerm;29409;49.306;8.500;2023-07-13T03:59:37;44.21;41.22;51.74;;
43787;Laerm;29409;49.306;8.500;2023-07-13T04:00:37;48.92;41.14;63.85;;
43787;Laerm;29409;49.306;8.500;2023-07-13T04:01:38;43.35;40.71;59.93;;
43787;Laerm;29409;49.306;8.500;2023-07-13T04:02:38;43.25;40.13;49.94;;
43787;Laerm;29409;49.306;8.500;2023-07-13T04:03:38;44.50;41.06;54.31;;
43787;Laerm;29409;49.306;8.500;2023-07-13T04:04:38;46.87;40.23;57.13;;
43787;Laerm;29409;49.306;8.500;2023-07-13T04:05:40;45.28;40.43;56.07;;
43787;Laerm;29409;49.306;8.500;2023-07-13T04:06:41;44.30;40.53;55.13;;
43787;Laerm;29409;49.306;8.500;2023-07-13T04:07:41;43.65;40.53;56.71;;
43787;Laerm;29409;49.306;8.500;2023-07-13T04:08:42;43.26;40.03;58.70;;
43787;Laerm;29409;49.306;8.500;2023-07-13T04:09:42;44.45;40.03;57.39;;
43787;Laerm;29409;49.306;8.500;2023-07-13T04:10:43;43.71;40.53;53.87;;
43787;Laerm;29409;49.306;8.500;2023-07-13T04:11:43;46.14;41.11;55.03;;
43787;Laerm;29409;49.306;8.500;2023-07-13T04:12:43;42.91;40.23;57.06;;
43787;Laerm;29409;49.306;8.500;2023-07-13T04:13:44;44.14;40.98;51.58;;
43787;Laerm;29409;49.306;8.500;2023-07-13T04:14:44;44.11;40.89;51.18;;
43787;Laerm;29409;49.306;8.500;2023-07-13T04:15:44;44.84;41.30;52.20;;
43787;Laerm;29409;49.306;8.500;2023-07-13T04:16:45;44.87;42.00;53.03;;
43787;Laerm;29409;49.306;8.500;2023-07-13T04:17:45;45.66;41.82;52.57;;
43787;Laerm;29409;49.306;8.500;2023-07-13T04:18:46;43.21;40.98;48.92;;
43787;Laerm;29409;49.306;8.500;2023-07-13T04:19:46;43.62;41.46;49.88;;
43787;Laerm;29409;49.306;8.500;2023-07-13T04:20:47;45.35;41.46;55.04;;
43787;Laerm;29409;49.306;8.500;2023-07-13T04:21:47;44.31;41.68;49.80;;
43787;Laerm;29409;49.306;8.500;2023-07-13T04:22:48;47.14;42.16;57.31;;
43787;Laerm;29409;49.306;8.500;2023-07-13T04:23:48;44.63;42.29;60.25;;
43787;Laerm;29409;49.306;8.500;2023-07-13T04:24:48;45.19;42.82;54.45;;
43787;Laerm;29409;49.306;8.500;2023-07-13T04:25:51;45.14;42.88;52.40;;
43787;Laerm;29409;49.306;8.500;2023-07-13T04:26:52;44.57;42.16;53.41;;
43787;Laerm;29409;49.306;8.500;2023-07-13T04:27:53;44.21;42.16;49.43;;
43787;Laerm;29409;49.306;8.500;2023-07-13T04:28:53;44.65;42.22;53.28;;
43787;Laerm;29409;49.306;8.500;2023-07-13T04:29:54;45.09;42.71;56.29;;
43787;Laerm;29409;49.306;8.500;2023-07-13T04:30:54;45.16;42.88;55.69;;
43787;Laerm;29409;49.306;8.500;2023-07-13T04:31:54;44.51;42.93;48.39;;
43787;Laerm;29409;49.306;8.500;2023-07-13T04:32:55;50.37;42.65;74.40;;
43787;Laerm;29409;49.306;8.500;2023-07-13T04:33:55;48.49;42.16;67.48;;
43787;Laerm;29409;49.306;8.500;2023-07-13T04:34:56;44.69;41.82;61.49;;
43787;Laerm;29409;49.306;8.500;2023-07-13T04:35:57;45.95;42.09;55.98;;
43787;Laerm;29409;49.306;8.500;2023-07-13T04:36:57;44.19;42.22;54.36;;
43787;Laerm;29409;49.306;8.500;2023-07-13T04:37:57;45.34;41.94;58.23;;
43787;Laerm;29409;49.306;8.500;2023-07-13T04:38:58;45.84;41.14;55.22;;
43787;Laerm;29409;49.306;8.500;2023-07-13T04:39:58;43.56;40.53;51.75;;
43787;Laerm;29409;49.306;8.500;2023-07-13T04:40:59;44.80;41.06;51.29;;
43787;Laerm;29409;49.306;8.500;2023-07-13T04:42:00;44.52;41.46;51.43;;
43787;Laerm;29409;49.306;8.500;2023-07-13T04:43:01;45.23;41.82;51.73;;
43787;Laerm;29409;49.306;8.500;2023-07-13T04:44:01;44.28;41.14;50.60;;
43787;Laerm;29409;49.306;8.500;2023-07-13T04:45:03;46.40;42.09;71.10;;
43787;Laerm;29409;49.306;8.500;2023-07-13T04:46:04;43.82;41.53;54.55;;
43787;Laerm;29409;49.306;8.500;2023-07-13T04:47:05;45.30;41.75;51.04;;
43787;Laerm;29409;49.306;8.500;2023-07-13T04:48:06;45.10;41.14;51.62;;
43787;Laerm;29409;49.306;8.500;2023-07-13T04:49:06;44.57;40.71;57.97;;
43787;Laerm;29409;49.306;8.500;2023-07-13T04:50:06;46.29;40.23;56.26;;
43787;Laerm;29409;49.306;8.500;2023-07-13T04:51:07;44.37;40.71;59.56;;
43787;Laerm;29409;49.306;8.500;2023-07-13T04:52:08;45.90;41.14;58.35;;
43787;Laerm;29409;49.306;8.500;2023-07-13T04:53:08;45.16;40.98;55.19;;
43787;Laerm;29409;49.306;8.500;2023-07-13T04:54:08;43.70;40.53;54.19;;
43787;Laerm;29409;49.306;8.500;2023-07-13T04:55:09;46.45;40.18;57.36;;
43787;Laerm;29409;49.306;8.500;2023-07-13T04:56:09;43.00;39.78;50.06;;
43787;Laerm;29409;49.306;8.500;2023-07-13T04:57:10;43.06;39.81;48.39;;
43787;Laerm;29409;49.306;8.500;2023-07-13T04:58:10;42.55;40.23;48.25;;
43787;Laerm;29409;49.306;8.500;2023-07-13T04:59:10;43.05;40.03;55.59;;
43787;Laerm;29409;49.306;8.500;2023-07-13T05:00:11;45.06;41.06;52.58;;
43787;Laerm;29409;49.306;8.500;2023-07-13T05:01:11;44.00;40.33;55.66;;
43787;Laerm;29409;49.306;8.500;2023-07-13T05:02:13;44.21;40.13;51.15;;
43787;Laerm;29409;49.306;8.500;2023-07-13T05:03:13;43.97;40.13;51.19;;
43787;Laerm;29409;49.306;8.500;2023-07-13T05:04:14;44.60;41.68;51.90;;
43787;Laerm;29409;49.306;8.500;2023-07-13T05:05:14;44.34;41.14;51.30;;
43787;Laerm;29409;49.306;8.500;2023-07-13T05:06:14;45.19;41.03;57.28;;
43787;Laerm;29409;49.306;8.500;2023-07-13T05:07:14;45.65;40.53;58.94;;
43787;Laerm;29409;49.306;8.500;2023-07-13T05:08:15;44.01;40.54;50.56;;
43787;Laerm;29409;49.306;8.500;2023-07-13T05:09:15;43.44;40.13;55.32;;
43787;Laerm;29409;49.306;8.500;2023-07-13T05:10:16;43.94;40.71;50.47;;
43787;Laerm;29409;49.306;8.500;2023-07-13T05:11:17;43.85;40.33;48.94;;
43787;Laerm;29409;49.306;8.500;2023-07-13T05:12:18;44.18;40.71;53.67;;
43787;Laerm;29409;49.306;8.500;2023-07-13T05:13:18;44.44;40.62;56.92;;
43787;Laerm;29409;49.306;8.500;2023-07-13T05:14:19;47.56;39.92;60.89;;
43787;Laerm;29409;49.306;8.500;2023-07-13T05:15:21;46.03;40.13;63.08;;
43787;Laerm;29409;49.306;8.500;2023-07-13T05:16:22;47.38;40.13;62.57;;
43787;Laerm;29409;49.306;8.500;2023-07-13T05:17:22;47.36;41.22;59.27;;
43787;Laerm;29409;49.306;8.500;2023-07-13T05:18:22;48.10;41.68;60.57;;
43787;Laerm;29409;49.306;8.500;2023-07-13T05:19:23;48.58;42.13;60.53;;
43787;Laerm;29409;49.306;8.500;2023-07-13T05:20:23;47.51;40.71;68.93;;
43787;Laerm;29409;49.306;8.500;2023-07-13T05:21:23;46.67;40.33;60.37;;
43787;Laerm;29409;49.306;8.500;2023-07-13T05:22:24;44.00;39.81;51.97;;
43787;Laerm;29409;49.306;8.500;2023-07-13T05:23:24;43.81;40.33;50.29;;
43787;Laerm;29409;49.306;8.500;2023-07-13T05:24:25;42.94;40.03;49.95;;
43787;Laerm;29409;49.306;8.500;2023-07-13T05:25:25;42.80;39.70;49.14;;
43787;Laerm;29409;49.306;8.500;2023-07-13T05:26:25;41.88;39.70;50.80;;
43787;Laerm;29409;49.306;8.500;2023-07-13T05:27:26;42.66;39.81;52.84;;
43787;Laerm;29409;49.306;8.500;2023-07-13T05:28:26;45.30;39.46;56.72;;
43787;Laerm;29409;49.306;8.500;2023-07-13T05:29:27;42.63;39.21;52.14;;
43787;Laerm;29409;49.306;8.500;2023-07-13T05:30:27;43.33;40.03;50.66;;
43787;Laerm;29409;49.306;8.500;2023-07-13T05:31:27;42.21;39.34;49.24;;
43787;Laerm;29409;49.306;8.500;2023-07-13T05:32:28;44.42;39.21;56.53;;
43787;Laerm;29409;49.306;8.500;2023-07-13T05:33:28;43.17;39.34;53.80;;
43787;Laerm;29409;49.306;8.500;2023-07-13T05:34:28;42.52;38.37;46.87;;
43787;Laerm;29409;49.306;8.500;2023-07-13T05:35:29;43.59;39.34;48.55;;
43787;Laerm;29409;49.306;8.500;2023-07-13T05:36:29;44.31;37.88;57.10;;
43787;Laerm;29409;49.306;8.500;2023-07-13T05:37:30;42.75;38.32;57.15;;
43787;Laerm;29409;49.306;8.500;2023-07-13T05:38:30;44.28;38.81;60.52;;
43787;Laerm;29409;49.306;8.500;2023-07-13T05:39:31;42.36;38.67;51.44;;